createdAt,value
2022-12-12T00:01:48.529Z,59.92
2022-12-12T00:04:15.378Z,66.13
2022-12-12T00:06:42.061Z,75.38
2022-12-12T00:09:09.624Z,59.88
2022-12-12T00:11:36.843Z,80.70
2022-12-12T00:14:04.305Z,66.65
2022-12-12T00:16:31.013Z,60.15
2022-12-12T00:18:57.663Z,63.42
2022-12-12T00:21:27.157Z,64.93
2022-12-12T00:23:55.144Z,94.68
2022-12-12T00:26:27.247Z,64.70
2022-12-12T00:28:54.561Z,63.90
2022-12-12T00:31:21.712Z,53.45
2022-12-12T00:33:51.788Z,60.13
2022-12-12T00:36:21.591Z,67.85
2022-12-12T00:38:48.652Z,76.32
2022-12-12T00:41:15.567Z,67.50
2022-12-12T00:43:43.172Z,71.68
2022-12-12T00:46:14.576Z,72.22
2022-12-12T00:48:41.325Z,70.20
2022-12-12T00:51:10.396Z,118.45
2022-12-12T00:53:38.546Z,98.60
2022-12-12T00:56:06.088Z,76.93
2022-12-12T00:58:33.721Z,98.18
2022-12-12T01:01:06.544Z,81.10
2022-12-12T01:03:35.085Z,78.68
2022-12-12T01:06:04.574Z,80.93
2022-12-12T01:08:31.284Z,82.63
2022-12-12T01:10:57.986Z,78.50
2022-12-12T01:13:25.403Z,80.63
2022-12-12T01:15:52.123Z,80.82
2022-12-12T01:18:19.362Z,75.10
2022-12-12T01:20:46.451Z,123.50
2022-12-12T01:23:13.699Z,107.15
2022-12-12T01:25:40.770Z,103.57
2022-12-12T01:28:07.886Z,107.25
2022-12-12T01:30:34.704Z,104.15
2022-12-12T01:33:01.474Z,88.30
2022-12-12T01:35:28.214Z,99.85
2022-12-12T01:37:54.938Z,73.18
2022-12-12T01:40:28.657Z,110.18
2022-12-12T01:42:55.574Z,98.53
2022-12-12T01:46:02.774Z,101.05
2022-12-12T01:48:34.954Z,70.03
2022-12-12T01:51:04.732Z,69.25
2022-12-12T01:53:32.644Z,87.68
2022-12-12T01:56:03.439Z,71.82
2022-12-12T01:58:30.856Z,70.15
2022-12-12T02:00:57.692Z,88.95
2022-12-12T02:03:25.189Z,112.43
2022-12-12T02:05:56.447Z,123.13
2022-12-12T02:08:23.879Z,85.07
2022-12-12T02:10:51.334Z,108.65
2022-12-12T02:13:28.889Z,100.22
2022-12-12T02:16:32.881Z,117.07
2022-12-12T02:19:53.138Z,56.67
2022-12-12T02:22:28.838Z,74.78
2022-12-12T02:25:01.275Z,67.45
2022-12-12T02:30:14.812Z,88.40
2022-12-12T02:32:54.679Z,73.05
2022-12-12T02:35:31.189Z,93.82
2022-12-12T02:38:04.102Z,91.55
2022-12-12T02:43:06.505Z,103.68
2022-12-12T02:45:39.859Z,94.15
2022-12-12T02:48:29.864Z,99.32
2022-12-12T02:50:59.121Z,108.22
2022-12-12T02:53:25.769Z,102.63
2022-12-12T02:56:06.508Z,131.18
2022-12-12T02:58:36.455Z,116.28
2022-12-12T03:01:31.027Z,107.63
2022-12-12T03:04:25.125Z,114.30
2022-12-12T03:07:28.728Z,83.80
2022-12-12T03:10:01.960Z,87.13
2022-12-12T03:12:51.038Z,96.68
2022-12-12T03:15:26.278Z,82.15
2022-12-12T03:18:21.846Z,112.82
2022-12-12T03:20:55.930Z,141.13
2022-12-12T03:23:28.320Z,63.08
2022-12-12T03:26:03.441Z,115.20
2022-12-12T03:28:54.845Z,89.40
2022-12-12T03:31:28.716Z,122.72
2022-12-12T03:34:02.071Z,127.93
2022-12-12T03:37:03.778Z,144.43
2022-12-12T03:39:42.829Z,170.35
2022-12-12T03:42:18.481Z,127.10
2022-12-12T03:45:05.813Z,156.38
2022-12-12T03:47:43.503Z,165.15
2022-12-12T03:50:22.153Z,147.60
2022-12-12T03:53:02.101Z,179.75
2022-12-12T03:55:56.923Z,166.95
2022-12-12T03:58:37.445Z,124.35
2022-12-12T04:01:07.949Z,98.00
2022-12-12T04:04:00.704Z,196.98
2022-12-12T04:06:30.406Z,153.27
2022-12-12T04:09:19.567Z,170.07
2022-12-12T04:12:17.800Z,106.20
2022-12-12T04:15:22.774Z,176.13
2022-12-12T04:18:28.991Z,193.65
2022-12-12T04:21:21.615Z,198.40
2022-12-12T04:24:05.703Z,186.18
2022-12-12T04:26:39.651Z,134.35
2022-12-12T04:29:24.740Z,97.70
2022-12-12T04:32:13.988Z,98.28
2022-12-12T04:34:47.263Z,85.55
2022-12-12T04:37:18.547Z,110.85
2022-12-12T04:39:48.633Z,138.43
2022-12-12T04:42:18.792Z,136.25
2022-12-12T04:44:47.293Z,140.05
2022-12-12T04:47:15.715Z,128.65
2022-12-12T04:49:46.194Z,86.60
2022-12-12T04:52:15.339Z,152.05
2022-12-12T04:54:49.677Z,179.18
2022-12-12T04:57:26.066Z,180.60
2022-12-12T04:59:52.798Z,155.07
2022-12-12T05:02:39.762Z,113.07
2022-12-12T05:05:23.861Z,161.60
2022-12-12T05:07:58.049Z,141.20
2022-12-12T05:10:25.273Z,189.23
2022-12-12T05:12:58.292Z,193.45
2022-12-12T05:15:26.089Z,91.53
2022-12-12T05:18:07.545Z,80.82
2022-12-12T05:20:34.739Z,224.65
2022-12-12T05:23:01.401Z,187.40
2022-12-12T05:25:28.081Z,135.82
2022-12-12T05:27:54.694Z,186.25
2022-12-12T05:30:21.749Z,219.73
2022-12-12T05:32:48.582Z,197.93
2022-12-12T05:35:15.539Z,129.45
2022-12-12T05:37:45.486Z,134.02
2022-12-12T05:40:17.120Z,150.52
2022-12-12T05:42:44.060Z,113.70
2022-12-12T05:45:11.774Z,156.90
2022-12-12T05:47:38.694Z,119.43
2022-12-12T05:50:06.052Z,124.97
2022-12-12T05:52:32.892Z,126.18
2022-12-12T05:57:32.292Z,83.85
2022-12-12T05:59:58.946Z,211.95
2022-12-12T06:02:25.733Z,97.32
2022-12-12T06:04:52.486Z,141.90
2022-12-12T06:07:19.152Z,129.13
2022-12-12T06:09:45.874Z,137.65
2022-12-12T06:12:12.752Z,176.75
2022-12-12T06:14:39.497Z,160.10
2022-12-12T06:17:06.201Z,106.10
2022-12-12T06:19:33.545Z,139.63
2022-12-12T06:22:00.165Z,101.47
2022-12-12T06:24:27.167Z,95.40
2022-12-12T06:26:54.035Z,87.03
2022-12-12T06:29:20.983Z,98.35
2022-12-12T06:31:47.962Z,114.38
2022-12-12T06:34:14.791Z,126.57
2022-12-12T06:36:41.447Z,93.35
2022-12-12T06:39:08.270Z,99.63
2022-12-12T06:41:37.280Z,113.90
2022-12-12T06:44:04.499Z,140.10
2022-12-12T06:46:31.418Z,101.10
2022-12-12T06:48:58.694Z,91.60
2022-12-12T06:51:29.329Z,148.65
2022-12-12T06:53:56.773Z,117.68
2022-12-12T06:56:26.122Z,88.50
2022-12-12T06:58:54.168Z,159.10
2022-12-12T07:01:22.984Z,119.93
2022-12-12T07:03:51.814Z,133.48
2022-12-12T07:06:20.737Z,141.35
2022-12-12T07:08:48.547Z,126.80
2022-12-12T07:11:21.349Z,194.68
2022-12-12T07:13:47.997Z,214.60
2022-12-12T07:16:14.945Z,138.88
2022-12-12T07:18:42.059Z,117.20
2022-12-12T07:21:12.978Z,181.77
2022-12-12T07:23:39.698Z,119.18
2022-12-12T07:26:11.808Z,162.40
2022-12-12T07:28:38.717Z,120.00
2022-12-12T07:31:07.455Z,154.02
2022-12-12T07:33:43.129Z,147.88
2022-12-12T07:36:11.089Z,160.18
2022-12-12T07:38:37.866Z,97.38
2022-12-12T07:41:06.591Z,87.72
2022-12-12T07:43:41.414Z,142.93
2022-12-12T07:46:11.838Z,132.13
2022-12-12T07:48:38.486Z,147.10
2022-12-12T07:51:05.277Z,105.70
2022-12-12T07:53:32.197Z,214.35
2022-12-12T07:55:59.076Z,211.30
2022-12-12T07:58:25.825Z,169.70
2022-12-12T08:00:52.565Z,147.35
2022-12-12T08:03:19.265Z,143.57
2022-12-12T08:05:45.966Z,133.55
2022-12-12T08:08:12.666Z,144.98
2022-12-12T08:10:40.754Z,107.28
2022-12-12T08:13:08.694Z,111.85
2022-12-12T08:15:35.468Z,90.80
2022-12-12T08:18:02.590Z,96.93
2022-12-12T08:20:29.452Z,63.20
2022-12-12T08:22:56.078Z,183.20
2022-12-12T08:25:22.739Z,177.63
2022-12-12T08:27:49.443Z,152.38
2022-12-12T08:30:16.544Z,80.63
2022-12-12T08:32:43.380Z,120.65
2022-12-12T08:35:10.351Z,128.80
2022-12-12T08:37:37.086Z,116.93
2022-12-12T08:40:04.114Z,198.07
2022-12-12T08:42:30.777Z,129.57
2022-12-12T08:44:57.445Z,229.32
2022-12-12T08:47:24.119Z,138.43
2022-12-12T08:49:51.260Z,118.15
2022-12-12T08:52:17.900Z,71.32
2022-12-12T08:54:44.536Z,108.63
2022-12-12T08:57:13.289Z,85.65
2022-12-12T08:59:39.911Z,97.40
2022-12-12T09:02:06.849Z,83.80
2022-12-12T09:04:34.853Z,75.47
2022-12-12T09:07:08.135Z,112.68
2022-12-12T09:09:35.308Z,137.75
2022-12-12T09:12:02.226Z,123.20
2022-12-12T09:14:28.922Z,143.05
2022-12-12T09:16:55.782Z,338.80
2022-12-12T09:19:22.519Z,264.30
2022-12-12T09:21:49.234Z,365.05
2022-12-12T09:24:16.869Z,156.32
2022-12-12T09:26:43.508Z,149.13
2022-12-12T09:29:11.061Z,344.13
2022-12-12T09:31:37.774Z,242.15
2022-12-12T09:34:04.509Z,235.70
2022-12-12T09:36:31.207Z,152.65
2022-12-12T09:38:57.825Z,95.78
2022-12-12T09:41:30.752Z,106.28
2022-12-12T09:44:08.702Z,133.55
2022-12-12T09:46:43.968Z,93.30
2022-12-12T09:49:19.416Z,247.70
2022-12-12T09:51:49.511Z,356.17
2022-12-12T09:54:21.667Z,302.67
2022-12-12T09:57:00.279Z,135.98
2022-12-12T09:59:51.846Z,174.05
2022-12-12T10:02:40.173Z,199.43
2022-12-12T10:05:21.992Z,148.93
2022-12-12T10:07:54.017Z,126.63
2022-12-12T10:10:29.140Z,135.45
2022-12-12T10:12:58.545Z,86.13
2022-12-12T10:15:36.822Z,204.70
2022-12-12T10:18:08.025Z,141.32
2022-12-12T10:20:43.720Z,150.02
2022-12-12T10:23:47.730Z,94.38
2022-12-12T10:26:20.438Z,113.65
2022-12-12T10:28:51.579Z,124.38
2022-12-12T10:31:39.605Z,216.50
2022-12-12T10:34:25.009Z,186.35
2022-12-12T10:37:32.919Z,92.18
2022-12-12T10:40:15.019Z,69.47
2022-12-12T10:42:52.146Z,119.32
2022-12-12T10:46:03.227Z,114.65
2022-12-12T10:48:30.019Z,175.75
2022-12-12T10:51:12.046Z,122.47
2022-12-12T10:53:41.167Z,154.70
2022-12-12T10:56:12.483Z,186.13
2022-12-12T10:58:42.056Z,104.35
2022-12-12T11:01:28.190Z,159.00
2022-12-12T11:04:06.089Z,174.40
2022-12-12T11:06:45.147Z,182.50
2022-12-12T11:09:17.703Z,200.88
2022-12-12T11:12:04.952Z,168.57
2022-12-12T11:14:37.445Z,100.68
2022-12-12T11:19:46.107Z,101.90
2022-12-12T11:22:13.968Z,91.45
2022-12-12T11:24:45.508Z,123.60
2022-12-12T11:27:25.594Z,127.00
2022-12-12T11:29:56.207Z,106.38
2022-12-12T11:32:45.116Z,194.80
2022-12-12T11:35:35.816Z,205.43
2022-12-12T11:38:26.689Z,116.07
2022-12-12T11:41:01.351Z,223.52
2022-12-12T11:43:35.812Z,171.95
2022-12-12T11:46:13.541Z,230.57
2022-12-12T11:48:43.107Z,97.45
2022-12-12T11:51:11.047Z,134.50
2022-12-12T11:53:41.653Z,172.80
2022-12-12T11:56:40.687Z,164.63
2022-12-12T11:59:32.595Z,161.20
2022-12-12T12:01:59.396Z,256.70
2022-12-12T12:04:33.873Z,170.30
2022-12-12T12:07:46.841Z,183.32
2022-12-12T12:10:26.311Z,245.38
2022-12-12T12:12:55.999Z,208.82
2022-12-12T12:15:34.697Z,148.60
2022-12-12T12:18:10.096Z,220.18
2022-12-12T12:21:21.183Z,162.75
2022-12-12T12:24:05.705Z,159.52
2022-12-12T12:27:18.703Z,204.52
2022-12-12T12:30:02.526Z,194.98
2022-12-12T12:32:54.145Z,229.70
2022-12-12T12:35:31.059Z,108.13
2022-12-12T12:38:00.742Z,178.23
2022-12-12T12:40:47.857Z,278.45
2022-12-12T12:43:42.387Z,220.35
2022-12-12T12:46:21.360Z,200.43
2022-12-12T12:48:53.561Z,136.15
2022-12-12T12:51:37.327Z,142.63
2022-12-12T12:54:11.973Z,85.32
2022-12-12T12:56:51.379Z,111.13
2022-12-12T12:59:23.641Z,160.68
2022-12-12T13:01:53.814Z,95.50
2022-12-12T13:04:44.051Z,70.93
2022-12-12T13:07:21.702Z,106.20
2022-12-12T13:10:00.418Z,100.22
2022-12-12T13:12:35.741Z,118.22
2022-12-12T13:15:08.028Z,176.90
2022-12-12T13:18:05.427Z,139.95
2022-12-12T13:20:43.549Z,121.03
2022-12-12T13:23:37.381Z,149.27
2022-12-12T13:26:15.705Z,80.38
2022-12-12T13:29:09.565Z,134.73
2022-12-12T13:32:15.256Z,91.68
2022-12-12T13:34:47.099Z,125.65
2022-12-12T13:37:20.527Z,128.70
2022-12-12T13:39:57.580Z,99.80
2022-12-12T13:42:24.335Z,165.00
2022-12-12T13:44:50.992Z,92.35
2022-12-12T13:47:23.293Z,77.40
2022-12-12T13:50:06.967Z,98.93
2022-12-12T13:52:42.395Z,86.47
2022-12-12T13:55:11.844Z,92.80
2022-12-12T13:58:19.545Z,132.32
2022-12-12T14:00:47.041Z,84.03
2022-12-12T14:03:13.735Z,73.07
2022-12-12T14:05:52.453Z,81.65
2022-12-12T14:08:23.882Z,103.70
2022-12-12T14:10:55.977Z,96.72
2022-12-12T14:13:23.168Z,85.70
2022-12-12T14:16:03.499Z,104.78
2022-12-12T14:18:31.811Z,104.88
2022-12-12T14:21:03.984Z,114.03
2022-12-12T14:23:47.940Z,93.38
2022-12-12T14:26:29.503Z,111.78
2022-12-12T14:29:17.753Z,101.85
2022-12-12T14:32:01.505Z,84.95
2022-12-12T14:35:12.542Z,78.95
2022-12-12T14:37:39.153Z,73.28
2022-12-12T14:40:27.627Z,80.07
2022-12-12T14:43:18.793Z,60.25
2022-12-12T14:45:51.341Z,55.55
2022-12-12T14:48:24.968Z,96.22
2022-12-12T14:51:12.054Z,160.27
2022-12-12T14:53:38.721Z,108.47
2022-12-12T14:56:13.180Z,61.38
2022-12-12T14:59:00.542Z,87.05
2022-12-12T15:01:34.511Z,70.03
2022-12-12T15:04:08.446Z,72.97
2022-12-12T15:06:43.090Z,111.80
2022-12-12T15:09:21.814Z,72.72
2022-12-12T15:11:49.123Z,79.97
2022-12-12T15:14:25.965Z,86.90
2022-12-12T15:17:01.567Z,83.97
2022-12-12T15:19:34.822Z,130.00
2022-12-12T15:22:01.991Z,114.45
2022-12-12T15:24:37.298Z,147.93
2022-12-12T15:27:05.749Z,109.78
2022-12-12T15:29:33.750Z,113.78
2022-12-12T15:32:09.518Z,99.55
2022-12-12T15:34:37.896Z,97.53
2022-12-12T15:37:29.511Z,128.73
2022-12-12T15:40:05.085Z,118.53
2022-12-12T15:42:33.245Z,104.03
2022-12-12T15:45:00.493Z,69.28
2022-12-12T15:47:27.216Z,121.80
2022-12-12T15:49:53.932Z,69.63
2022-12-12T15:52:31.529Z,114.43
2022-12-12T15:55:03.149Z,203.35
2022-12-12T15:57:34.378Z,153.20
2022-12-12T16:00:06.224Z,127.90
2022-12-12T16:02:35.678Z,116.55
2022-12-12T16:05:19.278Z,98.63
2022-12-12T16:07:45.948Z,152.23
2022-12-12T16:10:15.816Z,160.38
2022-12-12T16:13:17.836Z,165.95
2022-12-12T16:15:44.422Z,129.95
2022-12-12T16:18:13.824Z,63.22
2022-12-12T16:20:55.554Z,96.93
2022-12-12T16:23:22.918Z,110.10
2022-12-12T16:25:50.123Z,128.95
2022-12-12T16:28:25.883Z,121.22
2022-12-12T16:30:55.753Z,103.22
2022-12-12T16:33:30.218Z,116.32
2022-12-12T16:36:00.646Z,111.13
2022-12-12T16:38:32.377Z,85.35
2022-12-12T16:41:01.236Z,85.57
2022-12-12T16:43:29.206Z,74.35
2022-12-12T16:45:56.850Z,47.97
2022-12-12T16:48:41.848Z,40.45
2022-12-12T16:51:14.799Z,125.57
2022-12-12T16:53:41.458Z,65.00
2022-12-12T16:56:10.321Z,117.50
2022-12-12T16:58:37.567Z,91.88
2022-12-12T17:01:05.641Z,135.05
2022-12-12T17:03:32.999Z,135.38
2022-12-12T17:06:00.161Z,163.30
2022-12-12T17:08:27.493Z,269.27
2022-12-12T17:11:09.515Z,222.82
2022-12-12T17:13:37.644Z,232.00
2022-12-12T17:16:04.626Z,161.13
2022-12-12T17:18:32.316Z,267.75
2022-12-12T17:20:58.947Z,227.70
2022-12-12T17:23:28.309Z,387.85
2022-12-12T17:26:01.036Z,201.90
2022-12-12T17:28:30.803Z,336.63
2022-12-12T17:30:57.659Z,272.33
2022-12-12T17:33:24.397Z,160.00
2022-12-12T17:36:02.387Z,228.27
2022-12-12T17:38:30.531Z,230.48
2022-12-12T17:40:58.771Z,245.68
2022-12-12T17:43:26.165Z,197.98
2022-12-12T17:46:01.069Z,194.52
2022-12-12T17:48:30.090Z,160.85
2022-12-12T17:50:58.631Z,191.45
2022-12-12T17:53:25.520Z,170.68
2022-12-12T17:56:01.217Z,293.88
2022-12-12T17:58:35.448Z,243.87
2022-12-12T18:01:13.213Z,137.40
2022-12-12T18:03:40.856Z,230.60
2022-12-12T18:06:07.676Z,112.30
2022-12-12T18:08:34.723Z,186.77
2022-12-12T18:11:01.596Z,259.17
2022-12-12T18:13:28.358Z,150.35
2022-12-12T18:15:59.527Z,136.15
2022-12-12T18:18:29.857Z,249.07
2022-12-12T18:20:56.667Z,276.15
2022-12-12T18:23:23.311Z,167.65
2022-12-12T18:25:49.978Z,134.85
2022-12-12T18:28:16.677Z,208.20
2022-12-12T18:30:43.339Z,286.67
2022-12-12T18:33:10.756Z,184.60
2022-12-12T18:35:37.417Z,250.30
2022-12-12T18:38:04.177Z,187.70
2022-12-12T18:40:30.996Z,140.73
2022-12-12T18:42:57.656Z,214.38
2022-12-12T18:45:24.403Z,171.73
2022-12-12T18:47:51.164Z,194.90
2022-12-12T18:50:18.384Z,118.68
2022-12-12T18:52:44.979Z,139.80
2022-12-12T18:55:11.658Z,216.00
2022-12-12T18:57:38.269Z,134.43
2022-12-12T19:00:07.404Z,122.97
2022-12-12T19:02:38.637Z,160.30
2022-12-12T19:05:06.887Z,164.00
2022-12-12T19:07:33.817Z,113.00
2022-12-12T19:10:00.450Z,142.32
2022-12-12T19:12:28.313Z,135.95
2022-12-12T19:17:41.574Z,84.88
2022-12-12T19:20:08.779Z,102.07
2022-12-12T19:22:50.760Z,99.70
2022-12-12T19:25:18.770Z,74.82
2022-12-12T19:27:45.906Z,95.03
2022-12-12T19:30:14.325Z,95.43
2022-12-12T19:32:41.321Z,82.40
2022-12-12T19:35:08.408Z,58.17
2022-12-12T19:37:37.212Z,55.65
2022-12-12T19:40:06.639Z,73.82
2022-12-12T19:42:33.464Z,64.47
2022-12-12T19:45:00.205Z,61.45
2022-12-12T19:47:27.449Z,134.80
2022-12-12T19:49:54.143Z,55.42
2022-12-12T19:52:20.831Z,36.42
2022-12-12T19:54:47.499Z,28.48
2022-12-12T19:57:14.172Z,30.23
2022-12-12T19:59:40.811Z,32.80
2022-12-12T20:02:09.557Z,37.30
2022-12-12T20:04:36.293Z,31.92
2022-12-12T20:07:02.952Z,33.03
2022-12-12T20:09:30.223Z,26.52
2022-12-12T20:12:00.457Z,29.80
2022-12-12T20:14:30.059Z,41.17
2022-12-12T20:16:57.488Z,33.53
2022-12-12T20:19:27.156Z,38.85
2022-12-12T20:22:03.082Z,55.33
2022-12-12T20:24:32.894Z,47.35
2022-12-12T20:27:03.712Z,53.40
2022-12-12T20:29:30.690Z,48.72
2022-12-12T20:31:59.828Z,48.60
2022-12-12T20:34:27.638Z,46.40
2022-12-12T20:36:55.831Z,49.95
2022-12-12T20:39:24.758Z,51.78
2022-12-12T20:41:53.805Z,46.25
2022-12-12T20:44:20.646Z,50.35
2022-12-12T20:46:47.428Z,50.72
2022-12-12T20:49:17.941Z,49.35
2022-12-12T20:51:55.435Z,74.47
2022-12-12T20:54:24.535Z,76.95
2022-12-12T20:56:52.272Z,67.43
2022-12-12T20:59:19.056Z,72.68
2022-12-12T21:01:47.452Z,81.60
2022-12-12T21:04:15.263Z,89.30
2022-12-12T21:06:48.642Z,90.70
2022-12-12T21:09:23.172Z,74.80
2022-12-12T21:11:52.752Z,86.63
2022-12-12T21:14:19.532Z,81.53
2022-12-12T21:16:46.441Z,86.53
2022-12-12T21:19:14.286Z,67.03
2022-12-12T21:21:42.656Z,59.75
2022-12-12T21:24:12.356Z,51.08
2022-12-12T21:26:39.508Z,41.63
2022-12-12T21:29:06.291Z,32.80
2022-12-12T21:31:36.655Z,40.85
2022-12-12T21:34:04.846Z,40.15
2022-12-12T21:36:31.705Z,36.78
2022-12-12T21:39:00.510Z,34.13
2022-12-12T21:41:27.335Z,37.95
2022-12-12T21:43:56.058Z,40.25
2022-12-12T21:46:25.607Z,37.30
2022-12-12T21:49:11.558Z,35.42
2022-12-12T21:51:41.556Z,37.15
2022-12-12T21:54:10.894Z,41.42
2022-12-12T21:56:38.240Z,40.83
2022-12-12T21:59:05.359Z,33.50
2022-12-12T22:01:32.676Z,30.60
2022-12-12T22:04:00.859Z,30.15
2022-12-12T22:06:30.979Z,37.28
2022-12-12T22:08:59.045Z,30.20
2022-12-12T22:11:41.866Z,30.05
2022-12-12T22:14:16.308Z,56.90
2022-12-12T22:16:42.933Z,52.55
2022-12-12T22:19:14.616Z,39.15
2022-12-12T22:21:43.753Z,70.93
2022-12-12T22:24:10.473Z,55.92
2022-12-12T22:26:39.925Z,39.03
2022-12-12T22:29:10.674Z,40.00
2022-12-12T22:31:40.493Z,35.60
2022-12-12T22:34:20.077Z,38.63
2022-12-12T22:36:48.530Z,40.30
2022-12-12T22:39:18.824Z,38.70
2022-12-12T22:41:46.346Z,32.97
2022-12-12T22:44:16.172Z,32.88
2022-12-12T22:46:47.936Z,36.08
2022-12-12T22:49:21.095Z,35.63
2022-12-12T22:51:49.148Z,35.75
2022-12-12T22:54:16.021Z,34.05
2022-12-12T22:56:42.761Z,54.17
2022-12-12T22:59:12.035Z,30.58
2022-12-12T23:01:39.181Z,31.08
2022-12-12T23:04:06.794Z,33.45
2022-12-12T23:06:35.391Z,35.80
2022-12-12T23:09:22.758Z,35.25
2022-12-12T23:11:49.848Z,29.73
2022-12-12T23:14:19.805Z,28.40
2022-12-12T23:16:46.640Z,25.42
2022-12-12T23:19:17.403Z,20.40
2022-12-12T23:21:45.057Z,20.80
2022-12-12T23:24:15.023Z,22.75
2022-12-12T23:26:45.172Z,24.08
2022-12-12T23:29:16.313Z,19.50
2022-12-12T23:31:43.280Z,21.15
2022-12-12T23:34:24.510Z,22.90
2022-12-12T23:36:52.631Z,23.35
2022-12-12T23:39:19.908Z,21.80
2022-12-12T23:41:46.676Z,17.50
2022-12-12T23:44:15.457Z,17.92
2022-12-12T23:46:42.838Z,22.70
2022-12-12T23:49:12.350Z,19.77
2022-12-12T23:51:47.488Z,15.30
2022-12-12T23:54:27.321Z,18.77
2022-12-12T23:56:54.868Z,14.05
2022-12-12T23:59:21.848Z,27.27
